Time Latitude Longitude Accuracy (66% radius in meters) Altitude (meters) Speed (km/hour) Bearing (degrees) Battery (%) GPS flag
08:45:27 60.370978 29.556307 8 81.235775653454 0.36642318964005 195.33354187012 90 1 delete
08:45:18 60.370989 29.556316 8 81.443477389877 0.17751981317997 357.04678344727 90 1 delete
08:45:03 60.370984 29.556295 6 81.72047960244 0.062197156250477 186.93716430664 90 1 delete
08:44:51 60.371002 29.556309 6 81.739653674187 0.012782544828951 222.94714355469 90 1 delete
08:44:42 60.371004 29.556324 6 81.681242040931 0.0075545217841864 222.94714355469 90 1 delete
08:44:30 60.371004 29.556310 6 81.603194781684 0.038854442536831 222.94714355469 90 1 delete
08:44:21 60.371008 29.556295 6 81.601099360028 0.015857592225075 222.94714355469 90 1 delete
08:44:18 60.371011 29.556300 6 81.586325746226 0.033480945974588 222.94714355469 90 1 delete
08:44:09 60.371031 29.556332 6 81.55190386437 0.025667008012533 222.94714355469 90 1 delete
08:44:00 60.371066 29.556379 6 81.515711629242 0.027377480641007 222.94714355469 90 1 delete
08:43:51 60.371047 29.556361 6 81.430656981793 0.031119357794523 222.94714355469 90 1 delete
08:43:48 60.371023 29.556339 6 81.403871884325 0.0099540501832962 222.94714355469 90 1 delete
08:43:39 60.371000 29.556350 4 81.415626209352 0.023316279053688 222.94714355469 90 1 delete
08:43:30 60.370983 29.556349 6 81.509516286478 0.022113962098956 222.94714355469 90 1 delete
08:43:27 60.370987 29.556318 6 81.545604325377 0.0062113180756569 222.94714355469 90 1 delete
08:43:18 60.370998 29.556314 4 81.574088508906 0.018246257677674 222.94714355469 90 1 delete
08:43:09 60.371002 29.556301 6 81.597859226913 0.013052464462817 222.94714355469 90 1 delete
08:42:57 60.370996 29.556252 4 81.642702108086 0.027576783671975 222.94714355469 90 1 delete
08:42:54 60.371005 29.556242 4 81.618962872043 0.046865426003933 222.94714355469 90 1 delete
08:42:48 60.371032 29.556184 4 81.543494230164 0.011253167875111 222.94714355469 90 1 delete
08:42:36 60.371053 29.556154 4 81.298931574335 0.022456618025899 222.94714355469 90 1 delete
08:42:27 60.371049 29.556193 4 81.074400901785 0.023718750104308 222.94714355469 90 1 delete
08:42:15 60.371011 29.556244 6 80.878616355362 0.0085507407784462 222.94714355469 90 1 delete
08:42:03 60.371012 29.556239 6 80.720233414955 0.057703904807568 222.94714355469 90 1 delete
08:41:51 60.371019 29.556240 4 80.58199449804 0.014432633295655 222.94714355469 90 1 delete
08:41:39 60.371042 29.556230 4 80.460528310027 0.030293636023998 222.94714355469 90 1 delete
08:41:36 60.371049 29.556215 4 80.420683752254 0.012864861637354 222.94714355469 90 1 delete
08:41:30 60.371050 29.556183 4 80.320374230518 0.016467399895191 222.94714355469 90 1 delete
08:41:18 60.371050 29.556153 4 80.073054711087 0.0058239200152457 222.94714355469 90 1 delete
08:41:06 60.371041 29.556107 4 79.783891394841 0.0085994759574533 222.94714355469 90 1 delete
08:40:54 60.371022 29.556141 6 79.43082194058 0.01346745248884 222.94714355469 90 1 delete
08:40:42 60.371022 29.556128 6 79.099120990244 0.016716266050935 222.94714355469 90 1 delete
08:40:39 60.371027 29.556134 6 78.996687534692 0.0219463147223 222.94714355469 90 1 delete
08:40:33 60.371028 29.556205 6 78.810187949052 0.025370871648192 222.94714355469 90 1 delete
08:40:30 60.371038 29.556239 6 78.737428342557 0.013472274877131 222.94714355469 90 1 delete
08:40:21 60.371048 29.556288 6 78.490877167831 0.022608108818531 222.94714355469 90 1 delete
08:40:09 60.371043 29.556328 4 78.312374006367 0.027523126453161 222.94714355469 90 1 delete
08:39:57 60.371046 29.556350 4 78.197844690846 0.014761621132493 222.94714355469 90 1 delete
08:39:45 60.371060 29.556356 6 78.10212511385 0.029964094981551 222.94714355469 90 1 delete
08:39:33 60.371055 29.556332 6 77.971399067561 0.025913033634424 222.94714355469 90 1 delete
08:39:24 60.370991 29.556294 4 77.846168371376 0.045476976782084 222.94714355469 90 1 delete
08:39:15 60.371007 29.556306 8 77.775495376722 0.032087173312902 222.94714355469 90 1 delete
08:39:12 60.371020 29.556312 8 77.746716535029 0.022999884560704 222.94714355469 90 1 delete
08:39:00 60.371050 29.556337 4 77.525482244621 0.011468627490103 222.94714355469 90 1 delete
08:38:48 60.371017 29.556289 4 77.194204806301 0.0067646140232682 222.94714355469 90 1 delete
08:38:45 60.371008 29.556290 4 77.122102753414 0.029782114550471 222.94714355469 90 1 delete
08:38:39 60.370990 29.556293 8 77.018186890499 0.030380481854081 222.94714355469 90 1 delete
08:38:27 60.370965 29.556324 6 76.85291326854 0.067484699189663 222.94714355469 90 1 delete
08:38:24 60.370963 29.556332 6 76.82778500993 0.02522299438715 222.94714355469 90 1 delete
08:38:15 60.370969 29.556317 6 76.809772978828 0.036622583866119 222.94714355469 90 1 delete